createdAt,value
2018-01-02T00:01:57.433Z,78.90
2018-01-02T00:06:40.206Z,78.70
2018-01-02T00:11:22.928Z,80.30
2018-01-02T00:16:06.285Z,82.20
2018-01-02T00:20:49.010Z,83.70
2018-01-02T00:25:31.723Z,84.80
2018-01-02T00:30:14.514Z,85.90
2018-01-02T00:34:57.216Z,86.10
2018-01-02T00:39:40.058Z,86.60
2018-01-02T00:44:23.558Z,86.30
2018-01-02T00:49:06.504Z,86.30
2018-01-02T00:53:49.203Z,85.10
2018-01-02T00:58:31.904Z,85.60
2018-01-02T01:03:14.704Z,86.80
2018-01-02T01:07:57.530Z,87.00
2018-01-02T01:12:41.084Z,87.70
2018-01-02T01:17:23.991Z,87.70
2018-01-02T01:22:07.851Z,90.00
2018-01-02T01:26:50.801Z,90.00
2018-01-02T01:31:33.789Z,90.10
2018-01-02T01:36:16.721Z,90.40
2018-01-02T01:40:59.630Z,91.10
2018-01-02T01:45:42.507Z,91.20
2018-01-02T01:50:32.203Z,91.60
2018-01-02T01:55:15.844Z,91.80
2018-01-02T01:59:58.703Z,91.80
2018-01-02T02:04:41.652Z,91.60
2018-01-02T02:09:24.553Z,92.00
2018-01-02T02:14:07.421Z,92.00
2018-01-02T02:18:50.486Z,92.00
2018-01-02T02:23:33.333Z,92.00
2018-01-02T02:28:16.069Z,92.10
2018-01-02T02:32:58.847Z,91.80
2018-01-02T02:37:41.600Z,91.70
2018-01-02T02:42:24.396Z,91.70
2018-01-02T02:47:08.016Z,90.90
2018-01-02T02:51:50.887Z,90.90
2018-01-02T02:56:33.673Z,90.30
2018-01-02T03:01:16.409Z,90.20
2018-01-02T03:05:59.132Z,90.20
2018-01-02T03:10:41.810Z,90.20
2018-01-02T03:15:24.564Z,90.20
2018-01-02T03:20:07.245Z,90.20
2018-01-02T03:24:49.920Z,90.30
2018-01-02T03:29:32.644Z,90.30
2018-01-02T03:34:16.141Z,90.30
2018-01-02T03:38:58.898Z,90.30
2018-01-02T03:43:41.649Z,90.80
2018-01-02T03:48:24.337Z,90.50
2018-01-02T03:53:07.110Z,90.70
2018-01-02T03:57:50.693Z,90.70
2018-01-02T04:02:33.386Z,90.70
2018-01-02T04:07:16.910Z,90.90
2018-01-02T04:12:00.493Z,91.00
2018-01-02T04:16:47.175Z,91.00
2018-01-02T04:21:29.848Z,90.80
2018-01-02T04:26:13.424Z,90.80
2018-01-02T04:30:56.193Z,90.80
2018-01-02T04:35:38.969Z,90.90
2018-01-02T04:40:21.633Z,90.90
2018-01-02T04:45:06.616Z,90.80
2018-01-02T04:49:49.344Z,90.80
2018-01-02T04:54:32.099Z,90.80
2018-01-02T04:59:14.871Z,90.80
2018-01-02T05:03:58.372Z,90.40
2018-01-02T05:08:41.194Z,90.40
2018-01-02T05:13:23.945Z,90.40
2018-01-02T05:18:06.817Z,90.00
2018-01-02T05:22:49.600Z,89.50
2018-01-02T05:27:33.168Z,90.00
2018-01-02T05:32:15.930Z,90.00
2018-01-02T05:36:58.810Z,89.10
2018-01-02T05:41:41.617Z,89.00
2018-01-02T05:46:24.499Z,89.10
2018-01-02T05:51:07.492Z,89.80
2018-01-02T05:55:50.343Z,89.30
2018-01-02T06:00:33.314Z,89.40
2018-01-02T06:05:16.947Z,90.90
2018-01-02T06:10:00.412Z,91.20
2018-01-02T06:14:43.918Z,91.20
2018-01-02T06:19:26.840Z,91.20
2018-01-02T06:24:09.733Z,91.60
2018-01-02T06:28:52.612Z,91.90
2018-01-02T06:33:35.538Z,91.90
2018-01-02T06:38:19.148Z,91.60
2018-01-02T06:43:04.800Z,91.60
2018-01-02T06:47:47.692Z,91.70
2018-01-02T06:52:30.557Z,91.60
2018-01-02T06:57:13.388Z,91.60
2018-01-02T07:01:56.682Z,91.80
2018-01-02T07:06:39.621Z,92.30
2018-01-02T07:11:22.522Z,93.00
2018-01-02T07:16:06.386Z,93.30
2018-01-02T07:20:49.232Z,93.20
2018-01-02T07:25:33.004Z,94.10
2018-01-02T07:30:15.847Z,94.10
2018-01-02T07:34:58.782Z,94.00
2018-01-02T07:39:41.672Z,94.40
2018-01-02T07:44:24.619Z,94.30
2018-01-02T07:49:08.296Z,94.30
2018-01-02T07:53:51.103Z,94.30
2018-01-02T07:58:34.103Z,94.40
2018-01-02T08:03:16.955Z,94.30
2018-01-02T08:07:59.723Z,94.40
2018-01-02T08:12:42.577Z,94.50
2018-01-02T08:17:25.652Z,94.80
2018-01-02T08:22:08.512Z,94.90
2018-01-02T08:26:51.476Z,94.60
2018-01-02T08:31:34.615Z,95.00
2018-01-02T08:36:17.558Z,95.00
2018-01-02T08:41:01.200Z,94.60
2018-01-02T08:45:46.120Z,94.70
2018-01-02T08:50:28.933Z,94.80
2018-01-02T08:55:12.539Z,94.40
2018-01-02T08:59:55.369Z,94.30
2018-01-02T09:04:38.918Z,94.70
2018-01-02T09:09:22.979Z,94.60
2018-01-02T09:14:10.696Z,94.90
2018-01-02T09:18:53.632Z,94.90
2018-01-02T09:23:36.694Z,95.10
2018-01-02T09:28:19.832Z,95.00
2018-01-02T09:33:05.897Z,94.90
2018-01-02T09:37:48.748Z,94.60
2018-01-02T09:42:31.628Z,94.90
2018-01-02T09:47:15.062Z,95.10
2018-01-02T09:51:58.389Z,95.00
2018-01-02T09:56:41.260Z,94.80
2018-01-02T10:01:24.241Z,95.40
2018-01-02T10:06:07.128Z,95.10
2018-01-02T10:10:49.905Z,95.20
2018-01-02T10:15:34.020Z,95.10
2018-01-02T10:20:16.875Z,95.10
2018-01-02T10:24:59.729Z,94.90
2018-01-02T10:29:43.321Z,94.90
2018-01-02T10:34:26.148Z,94.90
2018-01-02T10:39:08.922Z,94.80
2018-01-02T10:43:51.944Z,94.90
2018-01-02T10:48:35.509Z,95.00
2018-01-02T10:53:18.471Z,95.00
2018-01-02T10:58:07.624Z,95.40
2018-01-02T11:02:51.401Z,95.30
2018-01-02T11:07:34.229Z,95.30
2018-01-02T11:12:17.535Z,95.30
2018-01-02T11:17:00.360Z,95.10
2018-01-02T11:21:48.183Z,95.50
2018-01-02T11:26:31.099Z,95.10
2018-01-02T11:31:15.958Z,95.20
2018-01-02T11:36:13.855Z,95.20
2018-01-02T11:40:56.741Z,95.10
2018-01-02T11:45:39.551Z,95.10
2018-01-02T11:50:23.148Z,95.10
2018-01-02T11:55:07.566Z,95.00
2018-01-02T11:59:50.456Z,94.80
2018-01-02T12:04:33.332Z,94.80
2018-01-02T12:09:16.196Z,94.00
2018-01-02T12:13:59.057Z,94.00
2018-01-02T12:18:41.935Z,93.90
2018-01-02T12:23:24.777Z,93.70
2018-01-02T12:28:07.779Z,93.80
2018-01-02T12:32:50.825Z,93.50
2018-01-02T12:37:34.585Z,93.40
2018-01-02T12:42:17.457Z,93.30
2018-01-02T12:47:04.691Z,93.20
2018-01-02T12:51:47.614Z,92.80
2018-01-02T12:56:30.470Z,93.30
2018-01-02T13:01:13.358Z,93.20
2018-01-02T13:05:56.276Z,93.00
2018-01-02T13:10:39.248Z,93.30
2018-01-02T13:15:22.085Z,93.20
2018-01-02T13:20:06.911Z,93.20
2018-01-02T13:24:50.100Z,93.30
2018-01-02T13:29:32.904Z,93.00
2018-01-02T13:34:15.884Z,93.50
2018-01-02T13:38:58.762Z,93.70
2018-01-02T13:43:41.607Z,93.90
2018-01-02T13:48:24.519Z,94.00
2018-01-02T13:53:07.370Z,93.60
2018-01-02T13:57:50.301Z,93.40
2018-01-02T14:02:33.174Z,93.30
2018-01-02T14:07:16.046Z,93.20
2018-01-02T14:11:58.933Z,93.00
2018-01-02T14:16:41.773Z,93.00
2018-01-02T14:21:24.681Z,93.00
2018-01-02T14:26:07.873Z,92.80
2018-01-02T14:30:50.657Z,92.80
2018-01-02T14:35:34.636Z,92.40
2018-01-02T14:40:17.355Z,92.40
2018-01-02T14:45:00.427Z,92.60
2018-01-02T14:49:43.285Z,92.70
2018-01-02T14:54:25.817Z,92.80
2018-01-02T14:59:08.416Z,92.90
2018-01-02T15:03:50.835Z,92.90
2018-01-02T15:08:36.106Z,93.00
2018-01-02T15:13:18.964Z,93.10
2018-01-02T15:18:07.496Z,93.20
2018-01-02T15:22:49.954Z,93.20
2018-01-02T15:27:32.472Z,93.30
2018-01-02T15:32:14.951Z,93.60
2018-01-02T15:36:57.373Z,93.60
2018-01-02T15:41:40.638Z,93.70
2018-01-02T15:46:23.019Z,93.60
2018-01-02T15:51:06.448Z,93.60
2018-01-02T15:55:48.940Z,93.60
2018-01-02T16:00:31.253Z,93.40
2018-01-02T16:05:13.679Z,93.60
2018-01-02T16:09:55.996Z,93.60
2018-01-02T16:14:38.360Z,93.40
2018-01-02T16:19:20.682Z,93.50
2018-01-02T16:24:05.909Z,93.40
2018-01-02T16:28:48.277Z,93.20
2018-01-02T16:33:30.696Z,93.10
2018-01-02T16:38:13.058Z,93.00
2018-01-02T16:42:55.455Z,93.00
2018-01-02T16:47:37.928Z,92.90
2018-01-02T16:52:20.414Z,92.90
2018-01-02T16:57:06.937Z,93.10
2018-01-02T17:01:49.529Z,93.30
2018-01-02T17:06:31.999Z,93.70
2018-01-02T17:11:14.558Z,93.80
2018-01-02T17:15:57.039Z,94.00
2018-01-02T17:20:39.598Z,94.20
2018-01-02T17:25:22.146Z,94.70
2018-01-02T17:30:06.540Z,94.60
2018-01-02T17:34:49.141Z,94.40
2018-01-02T17:39:31.808Z,94.60
2018-01-02T17:44:15.144Z,94.90
2018-01-02T17:48:57.745Z,94.80
2018-01-02T17:53:40.347Z,94.80
2018-01-02T17:58:22.939Z,94.80
2018-01-02T18:03:06.385Z,95.00
2018-01-02T18:07:50.727Z,95.00
2018-01-02T18:12:35.201Z,95.10
2018-01-02T18:17:17.861Z,95.20
2018-01-02T18:22:03.349Z,95.20
2018-01-02T18:26:47.090Z,95.20
2018-01-02T18:31:34.407Z,95.30
2018-01-02T18:36:19.540Z,95.30
2018-01-02T18:41:06.601Z,95.10
2018-01-02T18:45:50.839Z,94.90
2018-01-02T18:50:36.930Z,94.60
2018-01-02T18:55:20.654Z,94.60
2018-01-02T19:00:07.486Z,94.20
2018-01-02T19:04:50.076Z,94.10
2018-01-02T19:09:35.086Z,93.90
2018-01-02T19:14:17.815Z,93.70
2018-01-02T19:19:00.262Z,93.40
2018-01-02T19:23:44.060Z,93.40
2018-01-02T19:28:26.590Z,93.40
2018-01-02T19:33:09.174Z,93.40
2018-01-02T19:37:52.290Z,93.10
2018-01-02T19:42:34.958Z,92.90
2018-01-02T19:47:17.530Z,92.60
2018-01-02T19:52:00.104Z,92.20
2018-01-02T19:56:44.129Z,92.30
2018-01-02T20:01:27.616Z,92.30
2018-01-02T20:06:10.063Z,92.30
2018-01-02T20:10:52.572Z,92.70
2018-01-02T20:15:35.069Z,92.60
2018-01-02T20:20:17.519Z,92.70
2018-01-02T20:25:00.050Z,92.50
2018-01-02T20:29:42.534Z,91.90
2018-01-02T20:34:28.714Z,91.90
2018-01-02T20:39:15.886Z,92.10
2018-01-02T20:43:58.400Z,92.40
2018-01-02T20:48:40.973Z,92.70
2018-01-02T20:53:23.433Z,92.90
2018-01-02T20:58:06.020Z,93.00
2018-01-02T21:02:48.490Z,93.30
2018-01-02T21:07:30.933Z,93.40
2018-01-02T21:12:13.365Z,93.50
2018-01-02T21:16:55.785Z,93.80
2018-01-02T21:21:39.210Z,94.00
2018-01-02T21:26:21.837Z,93.90
2018-01-02T21:31:06.273Z,94.20
2018-01-02T21:35:48.874Z,94.30
2018-01-02T21:40:31.444Z,94.30
2018-01-02T21:45:14.759Z,94.10
2018-01-02T21:49:57.158Z,94.10
2018-01-02T21:54:40.121Z,94.10
2018-01-02T21:59:22.727Z,94.00
2018-01-02T22:04:06.281Z,94.00
2018-01-02T22:08:48.721Z,94.00
2018-01-02T22:13:31.202Z,93.80
2018-01-02T22:18:13.667Z,94.00
2018-01-02T22:22:56.145Z,94.00
2018-01-02T22:27:38.677Z,94.60
2018-01-02T22:32:23.597Z,94.70
2018-01-02T22:37:06.434Z,94.70
2018-01-02T22:41:48.931Z,94.60
2018-01-02T22:46:31.457Z,94.50
2018-01-02T22:51:15.215Z,94.50
2018-01-02T22:55:57.977Z,94.40
2018-01-02T23:00:40.537Z,94.70
2018-01-02T23:05:24.180Z,94.40
2018-01-02T23:10:06.888Z,94.40
2018-01-02T23:14:49.554Z,94.30
2018-01-02T23:19:33.124Z,94.10
2018-01-02T23:24:15.644Z,94.60
2018-01-02T23:28:58.143Z,94.40
2018-01-02T23:33:40.612Z,94.50
2018-01-02T23:38:23.218Z,94.90
2018-01-02T23:43:05.787Z,94.20
2018-01-02T23:47:48.306Z,93.90
2018-01-02T23:52:31.539Z,94.20
2018-01-02T23:57:13.989Z,94.20
